createdAt,value
2023-01-18T00:00:40.944Z,0.40
2023-01-18T00:03:13.237Z,0.63
2023-01-18T00:05:42.663Z,0.82
2023-01-18T00:08:11.458Z,0.20
2023-01-18T00:10:41.486Z,0.60
2023-01-18T00:13:10.450Z,0.75
2023-01-18T00:15:39.344Z,0.90
2023-01-18T00:18:07.772Z,0.40
2023-01-18T00:20:36.096Z,4.45
2023-01-18T00:23:04.268Z,0.30
2023-01-18T00:25:32.583Z,0.68
2023-01-18T00:28:02.085Z,0.45
2023-01-18T00:30:30.825Z,0.38
2023-01-18T00:33:01.010Z,1.48
2023-01-18T00:35:29.572Z,0.40
2023-01-18T00:37:57.692Z,0.28
2023-01-18T00:40:29.006Z,0.80
2023-01-18T00:43:14.730Z,0.40
2023-01-18T00:45:44.833Z,0.45
2023-01-18T00:48:13.053Z,0.98
2023-01-18T00:50:41.347Z,0.32
2023-01-18T00:53:09.524Z,0.20
2023-01-18T00:55:37.790Z,0.40
2023-01-18T00:58:05.971Z,0.25
2023-01-18T01:00:34.482Z,0.30
2023-01-18T01:03:04.104Z,0.45
2023-01-18T01:05:50.097Z,0.22
2023-01-18T01:08:18.302Z,0.22
2023-01-18T01:10:47.990Z,0.40
2023-01-18T01:13:35.030Z,0.28
2023-01-18T01:16:24.033Z,1.98
2023-01-18T01:19:11.777Z,2.00
2023-01-18T01:21:57.891Z,0.52
2023-01-18T01:24:44.038Z,0.50
2023-01-18T01:27:12.640Z,1.88
2023-01-18T01:29:40.845Z,0.90
2023-01-18T01:32:09.200Z,0.20
2023-01-18T01:34:38.657Z,0.30
2023-01-18T01:37:07.309Z,0.47
2023-01-18T01:39:35.538Z,0.25
2023-01-18T01:42:03.762Z,0.30
2023-01-18T01:44:52.212Z,0.10
2023-01-18T01:47:32.631Z,0.22
2023-01-18T01:50:07.821Z,0.10
2023-01-18T01:52:39.749Z,0.10
2023-01-18T01:55:13.358Z,0.00
2023-01-18T01:57:46.137Z,0.22
2023-01-18T02:00:17.128Z,0.17
2023-01-18T02:02:50.566Z,0.43
2023-01-18T02:05:20.677Z,1.20
2023-01-18T02:07:50.096Z,0.30
2023-01-18T02:10:18.834Z,3.60
2023-01-18T02:12:49.925Z,0.90
2023-01-18T02:15:20.095Z,0.75
2023-01-18T02:18:04.245Z,0.20
2023-01-18T02:21:01.681Z,0.13
2023-01-18T02:23:44.835Z,0.22
2023-01-18T02:26:43.444Z,0.10
2023-01-18T02:29:17.661Z,0.40
2023-01-18T02:31:58.058Z,0.45
2023-01-18T02:34:37.351Z,0.82
2023-01-18T02:37:11.623Z,0.22
2023-01-18T02:39:47.671Z,0.17
2023-01-18T02:42:34.541Z,0.00
2023-01-18T02:45:26.114Z,0.13
2023-01-18T02:47:56.348Z,0.68
2023-01-18T02:50:28.264Z,0.20
2023-01-18T02:52:57.103Z,2.83
2023-01-18T02:55:38.158Z,0.43
2023-01-18T02:58:12.138Z,0.30
2023-01-18T03:03:16.155Z,0.28
2023-01-18T03:05:47.485Z,0.70
2023-01-18T03:08:21.161Z,0.75
2023-01-18T03:11:00.808Z,0.28
2023-01-18T03:13:45.040Z,0.22
2023-01-18T03:16:21.572Z,0.10
2023-01-18T03:19:02.317Z,0.43
2023-01-18T03:21:38.303Z,0.55
2023-01-18T03:24:08.222Z,0.45
2023-01-18T03:26:41.309Z,0.35
2023-01-18T03:29:27.590Z,0.23
2023-01-18T03:32:19.978Z,0.17
2023-01-18T03:34:53.781Z,0.25
2023-01-18T03:37:28.677Z,0.43
2023-01-18T03:40:01.801Z,0.20
2023-01-18T03:42:35.812Z,0.57
2023-01-18T03:47:36.811Z,1.45
2023-01-18T03:50:05.617Z,0.50
2023-01-18T03:52:41.190Z,0.57
2023-01-18T03:55:16.811Z,0.30
2023-01-18T03:57:48.229Z,0.13
2023-01-18T04:00:17.680Z,0.08
2023-01-18T04:02:50.827Z,0.08
2023-01-18T04:05:20.022Z,0.67
2023-01-18T04:07:48.469Z,0.40
2023-01-18T04:10:16.817Z,0.30
2023-01-18T04:12:45.046Z,1.45
2023-01-18T04:15:13.486Z,0.38
2023-01-18T04:17:41.734Z,0.77
2023-01-18T04:20:12.236Z,0.30
2023-01-18T04:22:40.497Z,0.30
2023-01-18T04:25:09.159Z,2.05
2023-01-18T04:27:37.404Z,0.20
2023-01-18T04:30:06.574Z,0.30
2023-01-18T04:32:34.932Z,0.60
2023-01-18T04:35:03.118Z,0.10
2023-01-18T04:37:34.100Z,0.00
2023-01-18T04:40:02.854Z,1.67
2023-01-18T04:42:31.197Z,0.30
2023-01-18T04:45:00.681Z,0.20
2023-01-18T04:47:29.759Z,0.40
2023-01-18T04:49:58.670Z,0.10
2023-01-18T04:52:27.125Z,0.45
2023-01-18T04:54:56.763Z,0.20
2023-01-18T04:57:25.045Z,0.43
2023-01-18T04:59:53.334Z,0.85
2023-01-18T05:02:21.595Z,0.13
2023-01-18T05:04:49.937Z,0.10
2023-01-18T05:07:18.357Z,1.17
2023-01-18T05:09:46.577Z,0.17
2023-01-18T05:12:16.123Z,0.63
2023-01-18T05:14:44.304Z,0.32
2023-01-18T05:17:12.481Z,1.13
2023-01-18T05:19:41.189Z,0.73
2023-01-18T05:22:09.278Z,0.10
2023-01-18T05:24:37.721Z,0.10
2023-01-18T05:27:06.108Z,0.22
2023-01-18T05:29:35.819Z,0.30
2023-01-18T05:32:04.004Z,0.20
2023-01-18T05:34:32.340Z,0.70
2023-01-18T05:37:00.541Z,0.25
2023-01-18T05:39:28.799Z,0.20
2023-01-18T05:41:59.331Z,0.08
2023-01-18T05:44:28.506Z,0.40
2023-01-18T05:46:58.790Z,0.47
2023-01-18T05:49:26.972Z,0.45
2023-01-18T05:51:55.380Z,0.57
2023-01-18T05:54:23.703Z,0.32
2023-01-18T05:56:51.906Z,0.57
2023-01-18T05:59:20.159Z,0.28
2023-01-18T06:01:48.306Z,1.65
2023-01-18T06:04:17.920Z,1.05
2023-01-18T06:06:46.268Z,0.25
2023-01-18T06:09:14.463Z,0.28
2023-01-18T06:11:42.619Z,0.10
2023-01-18T06:14:10.825Z,0.43
2023-01-18T06:16:39.093Z,1.73
2023-01-18T06:19:07.401Z,0.20
2023-01-18T06:21:36.942Z,0.10
2023-01-18T06:24:05.388Z,0.25
2023-01-18T06:26:33.571Z,2.10
2023-01-18T06:29:01.867Z,0.20
2023-01-18T06:31:30.168Z,0.30
2023-01-18T06:33:58.386Z,0.50
2023-01-18T06:36:27.874Z,0.40
2023-01-18T06:38:57.446Z,0.20
2023-01-18T06:41:25.616Z,0.20
2023-01-18T06:43:53.889Z,0.30
2023-01-18T06:46:22.274Z,0.10
2023-01-18T06:48:50.504Z,0.20
2023-01-18T06:51:18.692Z,0.30
2023-01-18T06:53:46.922Z,0.35
2023-01-18T06:56:16.495Z,0.60
2023-01-18T06:58:45.205Z,0.35
2023-01-18T07:01:13.421Z,0.28
2023-01-18T07:03:41.719Z,0.15
2023-01-18T07:06:09.927Z,0.45
2023-01-18T07:08:40.185Z,0.77
2023-01-18T07:11:10.057Z,0.63
2023-01-18T07:13:40.413Z,0.10
2023-01-18T07:16:17.546Z,0.13
2023-01-18T07:18:47.008Z,1.02
2023-01-18T07:21:17.015Z,0.40
2023-01-18T07:23:45.560Z,0.32
2023-01-18T07:26:16.531Z,0.30
2023-01-18T07:28:48.355Z,0.38
2023-01-18T07:31:17.567Z,0.32
2023-01-18T07:33:45.956Z,1.70
2023-01-18T07:36:14.571Z,0.63
2023-01-18T07:38:42.835Z,0.55
2023-01-18T07:41:14.327Z,0.52
2023-01-18T07:43:44.995Z,1.73
2023-01-18T07:46:18.596Z,0.38
2023-01-18T07:48:47.931Z,1.73
2023-01-18T07:51:16.538Z,0.95
2023-01-18T07:53:45.670Z,0.40
2023-01-18T07:56:15.677Z,0.20
2023-01-18T07:58:44.420Z,0.30
2023-01-18T08:01:16.309Z,0.35
2023-01-18T08:03:45.884Z,0.50
2023-01-18T08:06:16.924Z,0.40
2023-01-18T08:08:45.339Z,0.60
2023-01-18T08:11:14.401Z,0.40
2023-01-18T08:13:42.911Z,0.75
2023-01-18T08:16:14.162Z,0.20
2023-01-18T08:18:45.316Z,0.28
2023-01-18T08:21:14.347Z,0.17
2023-01-18T08:23:42.843Z,0.65
2023-01-18T08:26:12.995Z,2.17
2023-01-18T08:28:41.711Z,0.43
2023-01-18T08:31:12.893Z,0.25
2023-01-18T08:33:46.138Z,0.75
2023-01-18T08:36:16.509Z,0.37
2023-01-18T08:38:48.185Z,0.40
2023-01-18T08:41:16.516Z,0.25
2023-01-18T08:43:45.389Z,1.00
2023-01-18T08:46:13.811Z,1.45
2023-01-18T08:48:44.806Z,0.45
2023-01-18T08:51:13.742Z,0.73
2023-01-18T08:53:41.905Z,0.73
2023-01-18T08:56:10.907Z,0.55
2023-01-18T08:58:39.075Z,0.30
2023-01-18T09:01:08.104Z,0.20
2023-01-18T09:03:37.482Z,0.60
2023-01-18T09:06:12.547Z,0.73
2023-01-18T09:08:41.445Z,0.70
2023-01-18T09:11:11.773Z,0.43
2023-01-18T09:13:54.623Z,0.08
2023-01-18T09:16:27.804Z,1.17
2023-01-18T09:18:57.582Z,0.85
2023-01-18T09:21:29.286Z,0.20
2023-01-18T09:23:58.003Z,0.30
2023-01-18T09:26:27.858Z,0.77
2023-01-18T09:28:56.268Z,0.10
2023-01-18T09:31:26.108Z,1.42
2023-01-18T09:33:59.051Z,0.20
2023-01-18T09:36:33.066Z,0.00
2023-01-18T09:39:01.454Z,0.17
2023-01-18T09:41:35.244Z,0.22
2023-01-18T09:44:09.713Z,0.38
2023-01-18T09:46:40.766Z,0.32
2023-01-18T09:49:17.755Z,2.25
2023-01-18T09:51:56.345Z,0.57
2023-01-18T09:54:36.092Z,0.25
2023-01-18T09:57:15.659Z,0.20
2023-01-18T09:59:51.254Z,0.32
2023-01-18T10:02:23.895Z,0.00
2023-01-18T10:04:56.585Z,0.05
2023-01-18T10:07:30.516Z,0.10
2023-01-18T10:12:37.900Z,0.17
2023-01-18T10:15:10.762Z,1.00
2023-01-18T10:17:41.693Z,0.28
2023-01-18T10:20:16.619Z,0.20
2023-01-18T10:22:51.155Z,0.10
2023-01-18T10:25:25.823Z,0.13
2023-01-18T10:28:12.930Z,0.63
2023-01-18T10:30:55.872Z,0.10
2023-01-18T10:33:26.672Z,1.42
2023-01-18T10:35:59.229Z,0.08
2023-01-18T10:38:31.390Z,0.38
2023-01-18T10:41:01.557Z,0.10
2023-01-18T10:43:32.798Z,0.20
2023-01-18T10:46:01.245Z,0.73
2023-01-18T10:48:32.185Z,0.10
2023-01-18T10:51:02.450Z,0.38
2023-01-18T10:53:34.183Z,0.30
2023-01-18T10:56:06.295Z,0.40
2023-01-18T10:58:42.183Z,0.00
2023-01-18T11:01:17.643Z,0.57
2023-01-18T11:03:48.808Z,0.40
2023-01-18T11:06:19.333Z,0.30
2023-01-18T11:08:49.783Z,0.82
2023-01-18T11:11:20.268Z,0.13
2023-01-18T11:13:50.260Z,0.17
2023-01-18T11:16:21.133Z,0.73
2023-01-18T11:19:17.464Z,0.10
2023-01-18T11:21:51.467Z,0.10
2023-01-18T11:24:26.090Z,0.15
2023-01-18T11:26:57.810Z,0.20
2023-01-18T11:29:30.434Z,1.02
2023-01-18T11:32:03.198Z,0.22
2023-01-18T11:34:33.813Z,0.13
2023-01-18T11:37:04.772Z,0.28
2023-01-18T11:39:36.364Z,1.13
2023-01-18T11:42:26.036Z,0.88
2023-01-18T11:45:04.516Z,1.80
2023-01-18T11:47:40.704Z,0.22
2023-01-18T11:50:22.719Z,1.15
2023-01-18T11:52:54.866Z,0.10
2023-01-18T11:55:32.736Z,0.35
2023-01-18T11:58:01.855Z,0.10
2023-01-18T12:00:40.304Z,0.65
2023-01-18T12:03:35.422Z,0.35
2023-01-18T12:06:07.256Z,0.10
2023-01-18T12:08:48.782Z,0.20
2023-01-18T12:11:36.413Z,1.13
2023-01-18T12:14:16.198Z,0.20
2023-01-18T12:16:56.175Z,0.20
2023-01-18T12:19:49.101Z,0.32
2023-01-18T12:22:35.906Z,0.50
2023-01-18T12:25:20.767Z,0.10
2023-01-18T12:28:00.679Z,0.10
2023-01-18T12:30:41.799Z,2.17
2023-01-18T12:33:31.271Z,0.00
2023-01-18T12:36:41.264Z,0.25
2023-01-18T12:39:23.365Z,0.30
2023-01-18T12:41:58.571Z,0.38
2023-01-18T12:44:39.735Z,0.50
2023-01-18T12:47:22.283Z,0.68
2023-01-18T12:49:57.448Z,2.53
2023-01-18T12:52:27.105Z,0.28
2023-01-18T12:54:59.423Z,0.17
2023-01-18T12:57:29.865Z,0.75
2023-01-18T13:00:04.110Z,0.88
2023-01-18T13:02:34.577Z,1.10
2023-01-18T13:05:07.835Z,1.38
2023-01-18T13:07:40.553Z,0.80
2023-01-18T13:10:17.704Z,0.17
2023-01-18T13:12:46.297Z,0.03
2023-01-18T13:15:27.584Z,1.10
2023-01-18T13:18:05.832Z,0.10
2023-01-18T13:20:48.670Z,0.93
2023-01-18T13:23:28.586Z,0.57
2023-01-18T13:26:07.765Z,0.55
2023-01-18T13:28:37.028Z,0.57
2023-01-18T13:31:06.906Z,0.17
2023-01-18T13:33:38.074Z,0.35
2023-01-18T13:36:09.029Z,0.10
2023-01-18T13:38:42.053Z,0.00
2023-01-18T13:41:13.274Z,4.13
2023-01-18T13:44:01.450Z,0.00
2023-01-18T13:46:33.082Z,0.08
2023-01-18T13:49:36.282Z,0.32
2023-01-18T13:52:32.698Z,0.13
2023-01-18T13:55:05.463Z,0.10
2023-01-18T13:57:36.546Z,0.47
2023-01-18T14:00:07.612Z,0.22
2023-01-18T14:02:43.455Z,0.93
2023-01-18T14:05:25.543Z,0.20
2023-01-18T14:07:59.005Z,0.95
2023-01-18T14:10:31.859Z,1.10
2023-01-18T14:13:02.075Z,1.42
2023-01-18T14:15:45.099Z,2.35
2023-01-18T14:18:21.192Z,0.20
2023-01-18T14:21:11.491Z,0.38
2023-01-18T14:24:00.184Z,3.15
2023-01-18T14:26:32.012Z,0.73
2023-01-18T14:29:04.665Z,0.17
2023-01-18T14:31:38.271Z,0.50
2023-01-18T14:34:25.865Z,0.25
2023-01-18T14:36:55.170Z,0.98
2023-01-18T14:39:24.781Z,0.50
2023-01-18T14:41:56.444Z,0.15
2023-01-18T14:44:27.770Z,0.22
2023-01-18T14:46:58.351Z,0.25
2023-01-18T14:49:30.079Z,0.15
2023-01-18T14:51:59.732Z,0.10
2023-01-18T14:54:29.587Z,0.65
2023-01-18T14:57:05.610Z,0.70
2023-01-18T14:59:36.005Z,0.30
2023-01-18T15:02:17.038Z,0.15
2023-01-18T15:04:47.450Z,1.17
2023-01-18T15:07:20.057Z,0.20
2023-01-18T15:09:50.095Z,0.10
2023-01-18T15:12:22.232Z,0.35
2023-01-18T15:14:51.698Z,0.77
2023-01-18T15:17:24.460Z,2.38
2023-01-18T15:19:56.259Z,1.13
2023-01-18T15:22:36.971Z,0.30
2023-01-18T15:25:16.129Z,2.40
2023-01-18T15:27:50.225Z,0.90
2023-01-18T15:30:19.501Z,0.20
2023-01-18T15:32:51.254Z,0.40
2023-01-18T15:35:19.947Z,0.28
2023-01-18T15:37:48.256Z,0.52
2023-01-18T15:40:37.010Z,3.65
2023-01-18T15:43:10.355Z,0.43
2023-01-18T15:45:42.926Z,1.05
2023-01-18T15:48:18.648Z,3.72
2023-01-18T15:50:53.005Z,2.08
2023-01-18T15:53:24.128Z,3.20
2023-01-18T15:55:58.479Z,1.40
2023-01-18T15:58:32.659Z,1.92
2023-01-18T16:01:03.335Z,3.15
2023-01-18T16:03:36.006Z,0.68
2023-01-18T16:06:13.268Z,1.77
2023-01-18T16:09:10.646Z,3.05
2023-01-18T16:11:49.900Z,10.25
2023-01-18T16:14:24.745Z,16.60
2023-01-18T16:16:55.255Z,17.73
2023-01-18T16:19:28.449Z,12.43
2023-01-18T16:21:59.807Z,3.43
2023-01-18T16:24:33.100Z,1.30
2023-01-18T16:27:11.207Z,3.65
2023-01-18T16:29:43.983Z,4.57
2023-01-18T16:32:29.667Z,3.20
2023-01-18T16:34:59.956Z,4.55
2023-01-18T16:37:28.575Z,2.45
2023-01-18T16:39:56.790Z,6.10
2023-01-18T16:42:37.605Z,6.68
2023-01-18T16:45:13.566Z,7.13
2023-01-18T16:47:41.852Z,5.50
2023-01-18T16:50:15.718Z,5.15
2023-01-18T16:55:13.785Z,9.43
2023-01-18T16:57:44.422Z,6.13
2023-01-18T17:00:18.143Z,4.00
2023-01-18T17:02:46.781Z,4.20
2023-01-18T17:05:15.857Z,3.35
2023-01-18T17:07:44.578Z,3.65
2023-01-18T17:10:21.600Z,6.78
2023-01-18T17:12:51.211Z,2.92
2023-01-18T17:15:20.206Z,2.47
2023-01-18T17:17:48.921Z,7.03
2023-01-18T17:20:21.018Z,5.30
2023-01-18T17:22:50.613Z,3.72
2023-01-18T17:25:19.275Z,2.92
2023-01-18T17:27:48.888Z,2.72
2023-01-18T17:30:22.173Z,2.40
2023-01-18T17:32:50.859Z,5.95
2023-01-18T17:35:21.758Z,3.63
2023-01-18T17:37:54.576Z,2.95
2023-01-18T17:40:38.944Z,5.13
2023-01-18T17:43:13.619Z,3.53
2023-01-18T17:45:48.352Z,4.63
2023-01-18T17:48:19.564Z,5.22
2023-01-18T17:50:47.844Z,3.75
2023-01-18T17:53:16.215Z,3.53
2023-01-18T17:55:44.381Z,3.70
2023-01-18T17:58:12.682Z,3.33
2023-01-18T18:00:40.985Z,2.63
2023-01-18T18:03:10.609Z,3.22
2023-01-18T18:05:39.055Z,2.63
2023-01-18T18:08:07.702Z,1.45
2023-01-18T18:10:35.991Z,4.32
2023-01-18T18:13:04.497Z,4.13
2023-01-18T18:15:32.724Z,2.70
2023-01-18T18:18:01.008Z,2.90
2023-01-18T18:20:30.553Z,2.35
2023-01-18T18:22:59.180Z,3.08
2023-01-18T18:25:27.731Z,4.45
2023-01-18T18:27:55.983Z,2.28
2023-01-18T18:30:24.606Z,5.30
2023-01-18T18:32:52.895Z,3.28
2023-01-18T18:35:26.260Z,2.88
2023-01-18T18:37:57.275Z,2.85
2023-01-18T18:40:26.252Z,4.05
2023-01-18T18:43:02.258Z,4.03
2023-01-18T18:45:31.934Z,3.95
2023-01-18T18:48:00.755Z,7.20
2023-01-18T18:50:29.439Z,3.50
2023-01-18T18:52:59.784Z,2.13
2023-01-18T18:55:28.277Z,4.32
2023-01-18T18:57:56.923Z,1.88
2023-01-18T19:00:25.798Z,2.78
2023-01-18T19:02:58.981Z,4.65
2023-01-18T19:05:27.526Z,2.58
2023-01-18T19:07:55.754Z,4.25
2023-01-18T19:10:27.605Z,3.25
2023-01-18T19:12:55.996Z,2.50
2023-01-18T19:15:24.644Z,3.03
2023-01-18T19:17:53.960Z,1.55
2023-01-18T19:20:22.350Z,3.05
2023-01-18T19:22:51.614Z,3.40
2023-01-18T19:25:20.524Z,5.97
2023-01-18T19:27:50.143Z,1.65
2023-01-18T19:30:20.068Z,0.63
2023-01-18T19:32:49.158Z,1.95
2023-01-18T19:35:18.472Z,1.95
2023-01-18T19:37:48.322Z,0.30
2023-01-18T19:40:18.008Z,0.77
2023-01-18T19:42:55.892Z,0.85
2023-01-18T19:45:28.906Z,0.38
2023-01-18T19:47:58.602Z,1.17
2023-01-18T19:50:28.062Z,2.13
2023-01-18T19:52:56.708Z,0.30
2023-01-18T19:55:25.370Z,1.77
2023-01-18T19:57:58.002Z,0.45
2023-01-18T20:00:29.393Z,0.25
2023-01-18T20:02:58.009Z,1.08
2023-01-18T20:05:27.338Z,0.30
2023-01-18T20:07:57.003Z,0.63
2023-01-18T20:10:25.275Z,0.20
2023-01-18T20:12:53.380Z,0.38
2023-01-18T20:15:21.747Z,1.00
2023-01-18T20:17:51.350Z,5.18
2023-01-18T20:20:31.558Z,2.75
2023-01-18T20:23:03.088Z,2.00
2023-01-18T20:25:32.716Z,0.88
2023-01-18T20:28:01.000Z,0.90
2023-01-18T20:30:29.364Z,0.52
2023-01-18T20:32:59.258Z,0.90
2023-01-18T20:35:28.650Z,0.52
2023-01-18T20:37:56.894Z,0.45
2023-01-18T20:40:25.082Z,2.05
2023-01-18T20:42:53.314Z,0.10
2023-01-18T20:45:21.612Z,0.88
2023-01-18T20:47:49.800Z,0.60
2023-01-18T20:50:23.118Z,0.43
2023-01-18T20:52:51.587Z,1.83
2023-01-18T20:55:20.566Z,1.35
2023-01-18T20:57:52.116Z,0.77
2023-01-18T21:00:21.110Z,0.55
2023-01-18T21:02:49.792Z,0.47
2023-01-18T21:05:19.874Z,0.80
2023-01-18T21:07:48.209Z,0.40
2023-01-18T21:10:16.802Z,0.30
2023-01-18T21:12:45.033Z,0.40
2023-01-18T21:15:13.658Z,1.65
2023-01-18T21:17:41.849Z,1.90
2023-01-18T21:20:11.286Z,1.40
2023-01-18T21:22:40.800Z,0.65
2023-01-18T21:25:09.797Z,0.65
2023-01-18T21:27:37.903Z,0.57
2023-01-18T21:30:06.928Z,0.15
2023-01-18T21:32:35.078Z,0.82
2023-01-18T21:35:03.444Z,0.47
2023-01-18T21:37:31.686Z,0.75
2023-01-18T21:40:01.244Z,1.45
2023-01-18T21:42:47.264Z,1.65
2023-01-18T21:45:33.340Z,1.58
2023-01-18T21:48:07.365Z,0.93
2023-01-18T21:50:53.376Z,2.47
2023-01-18T21:53:38.916Z,2.00
2023-01-18T21:56:08.765Z,0.60
2023-01-18T21:58:50.923Z,0.32
2023-01-18T22:01:21.371Z,0.77
2023-01-18T22:04:08.679Z,0.63
2023-01-18T22:06:37.395Z,0.63
2023-01-18T22:09:06.448Z,2.00
2023-01-18T22:11:36.105Z,1.75
2023-01-18T22:14:05.052Z,1.13
2023-01-18T22:16:33.559Z,0.60
2023-01-18T22:19:02.759Z,0.88
2023-01-18T22:21:30.951Z,0.98
2023-01-18T22:23:59.915Z,0.45
2023-01-18T22:26:30.835Z,0.85
2023-01-18T22:29:00.840Z,0.82
2023-01-18T22:31:29.236Z,1.60
2023-01-18T22:33:58.094Z,1.90
2023-01-18T22:36:26.453Z,0.50
2023-01-18T22:38:55.076Z,0.98
2023-01-18T22:41:25.432Z,0.30
2023-01-18T22:43:54.947Z,1.10
2023-01-18T22:46:25.165Z,0.32
2023-01-18T22:48:53.775Z,0.43
2023-01-18T22:51:24.339Z,0.52
2023-01-18T22:53:53.403Z,1.48
2023-01-18T22:56:24.248Z,1.35
2023-01-18T22:58:53.294Z,0.65
2023-01-18T23:01:25.108Z,0.28
2023-01-18T23:03:58.334Z,1.02
2023-01-18T23:06:28.195Z,0.50
2023-01-18T23:08:57.022Z,0.80
2023-01-18T23:11:27.382Z,1.98
2023-01-18T23:14:15.197Z,1.48
2023-01-18T23:17:01.907Z,0.80
2023-01-18T23:19:31.692Z,0.52
2023-01-18T23:22:00.323Z,0.85
2023-01-18T23:24:28.577Z,0.68
2023-01-18T23:26:56.752Z,0.35
2023-01-18T23:29:25.043Z,1.73
2023-01-18T23:31:53.211Z,2.05
2023-01-18T23:34:21.492Z,2.17
2023-01-18T23:36:51.669Z,3.55
2023-01-18T23:39:37.236Z,2.20
2023-01-18T23:42:22.830Z,0.57
2023-01-18T23:45:08.518Z,0.70
2023-01-18T23:47:54.445Z,1.30
2023-01-18T23:50:40.802Z,2.83
2023-01-18T23:53:31.192Z,0.85
2023-01-18T23:55:59.889Z,4.28
2023-01-18T23:58:28.303Z,1.65
